This is the latest recevied weather packets stored in our database for station/object FW1079. If no packets are shown the sender has not sent any weather packets the latest 10 day(s).
| Time | Temp. | Humidity | Pressure | Rain* | Wind** | Luminosity | Snow |
|---|---|---|---|---|---|---|---|
| 1777856361 | 11.67° C | 79% | 1018 hPa | 0 mm | - | - | - |
| 1777856061 | 11.11° C | 78% | 1018 hPa | 0 mm | - | - | - |
| 1777855164 | 11.11° C | 79% | 1018 hPa | 0 mm | - | - | - |
| 1777854561 | 11.11° C | 79% | 1018 hPa | 0 mm | - | - | - |
| 1777853965 | 11.67° C | 80% | 1018 hPa | 0 mm | - | - | - |
| 1777848861 | 10.56° C | 79% | 1018 hPa | 0 mm | - | - | - |
| 1777848564 | 10.56° C | 79% | 1018 hPa | 0 mm | - | - | - |
| 1777846764 | 11.11° C | 80% | 1018 hPa | 0 mm | - | - | - |
| 1777841061 | 11.67° C | 76% | 1018 hPa | 0 mm | - | - | - |
| 1777840461 | 11.67° C | 75% | 1018 hPa | 0 mm | - | - | - |
| 1777839861 | 11.67° C | 74% | 1018 hPa | 0 mm | - | - | - |
| 1777839561 | 11.67° C | 74% | 1018 hPa | 0 mm | - | - | - |
| 1777838661 | 12.22° C | 72% | 1018 hPa | 0 mm | - | - | - |
| 1777837161 | 12.78° C | 71% | 1018 hPa | 0 mm | - | - | - |
| 1777836861 | 12.78° C | 71% | 1018 hPa | 0 mm | - | - | - |
| 1777835661 | 13.33° C | 69% | 1018 hPa | 0 mm | - | - | - |
| 1777833261 | 14.44° C | 66% | 1017 hPa | 0 mm | - | - | - |
| 1777829360 | 19.44° C | 46% | 1017 hPa | 0 mm | - | - | - |
| 1777827561 | 20° C | 43% | 1017 hPa | 0 mm | - | - | - |
| 1777827261 | 20° C | 43% | 1017 hPa | 0 mm | - | - | - |
| 1777826060 | 20.56° C | 42% | 1017 hPa | 0 mm | - | - | - |
| 1777822760 | 22.22° C | 39% | 1017 hPa | 0 mm | - | - | - |
| 1777819164 | 24.44° C | 35% | 1018 hPa | 0 mm | - | - | - |
| 1777818860 | 24.44° C | 36% | 1018 hPa | 0 mm | - | - | - |
| 1777818260 | 23.89° C | 36% | 1018 hPa | 0 mm | - | - | - |
* Rain latest hour (hover to see other rain measurements)
** Current wind speed in m/s (hover to see current wind gust speed)